sensor_id;sensor_type;location;lat;lon;timestamp;temperature;humidity
3344;DHT22;1685;53.104;8.228;2023-01-16T00:09:03;5.10;99.90
3344;DHT22;1685;53.104;8.228;2023-01-16T00:11:31;4.60;99.90
3344;DHT22;1685;53.104;8.228;2023-01-16T00:28:45;4.60;99.90
3344;DHT22;1685;53.104;8.228;2023-01-16T00:45:57;4.50;99.90
3344;DHT22;1685;53.104;8.228;2023-01-16T01:03:08;4.50;99.90
3344;DHT22;1685;53.104;8.228;2023-01-16T01:05:36;4.50;99.90
3344;DHT22;1685;53.104;8.228;2023-01-16T01:20:20;4.60;99.90
3344;DHT22;1685;53.104;8.228;2023-01-16T01:30:09;4.60;99.90
3344;DHT22;1685;53.104;8.228;2023-01-16T01:35:04;4.50;99.90
3344;DHT22;1685;53.104;8.228;2023-01-16T01:37:33;4.50;99.90
3344;DHT22;1685;53.104;8.228;2023-01-16T01:45:16;4.40;99.90
3344;DHT22;1685;53.104;8.228;2023-01-16T01:47:47;4.50;99.90
3344;DHT22;1685;53.104;8.228;2023-01-16T01:50:22;4.40;99.90
3344;DHT22;1685;53.104;8.228;2023-01-16T01:52:52;4.30;99.90
3344;DHT22;1685;53.104;8.228;2023-01-16T01:55:21;4.50;99.90
3344;DHT22;1685;53.104;8.228;2023-01-16T01:57:51;4.50;99.90
3344;DHT22;1685;53.104;8.228;2023-01-16T02:00:22;4.50;99.90
3344;DHT22;1685;53.104;8.228;2023-01-16T02:02:54;4.50;99.90
3344;DHT22;1685;53.104;8.228;2023-01-16T02:05:24;4.50;99.90
3344;DHT22;1685;53.104;8.228;2023-01-16T02:10:27;4.50;99.90
3344;DHT22;1685;53.104;8.228;2023-01-16T02:20:46;4.30;99.90
3344;DHT22;1685;53.104;8.228;2023-01-16T02:26:51;4.50;99.90
3344;DHT22;1685;53.104;8.228;2023-01-16T02:32:55;4.20;99.90
3344;DHT22;1685;53.104;8.228;2023-01-16T02:35:44;4.10;99.90
3344;DHT22;1685;53.104;8.228;2023-01-16T02:38:19;4.40;99.90
3344;DHT22;1685;53.104;8.228;2023-01-16T02:40:54;4.30;99.90
3344;DHT22;1685;53.104;8.228;2023-01-16T02:43:32;4.30;99.90
3344;DHT22;1685;53.104;8.228;2023-01-16T02:46:08;4.40;99.90
3344;DHT22;1685;53.104;8.228;2023-01-16T02:48:47;4.30;99.90
3344;DHT22;1685;53.104;8.228;2023-01-16T02:51:22;4.30;99.90
3344;DHT22;1685;53.104;8.228;2023-01-16T02:53:57;4.40;99.90
3344;DHT22;1685;53.104;8.228;2023-01-16T02:56:29;4.30;99.90
3344;DHT22;1685;53.104;8.228;2023-01-16T02:58:58;4.30;99.90
3344;DHT22;1685;53.104;8.228;2023-01-16T03:04:04;4.20;99.90
3344;DHT22;1685;53.104;8.228;2023-01-16T03:06:41;4.20;99.90
3344;DHT22;1685;53.104;8.228;2023-01-16T03:09:23;4.20;99.90
3344;DHT22;1685;53.104;8.228;2023-01-16T03:12:05;4.10;99.90
3344;DHT22;1685;53.104;8.228;2023-01-16T03:14:38;4.10;99.90
3344;DHT22;1685;53.104;8.228;2023-01-16T03:17:21;4.00;99.90
3344;DHT22;1685;53.104;8.228;2023-01-16T03:20:06;4.00;99.90
3344;DHT22;1685;53.104;8.228;2023-01-16T03:22:39;3.90;99.90
3344;DHT22;1685;53.104;8.228;2023-01-16T03:25:18;3.90;99.90
3344;DHT22;1685;53.104;8.228;2023-01-16T03:27:55;3.90;99.90
3344;DHT22;1685;53.104;8.228;2023-01-16T03:30:28;3.90;99.90
3344;DHT22;1685;53.104;8.228;2023-01-16T03:33:01;3.80;99.90
3344;DHT22;1685;53.104;8.228;2023-01-16T03:35:33;3.70;99.90
3344;DHT22;1685;53.104;8.228;2023-01-16T03:38:03;3.70;99.90
3344;DHT22;1685;53.104;8.228;2023-01-16T03:40:34;3.80;99.90
3344;DHT22;1685;53.104;8.228;2023-01-16T03:43:06;3.70;99.90
3344;DHT22;1685;53.104;8.228;2023-01-16T03:45:40;3.80;99.90
3344;DHT22;1685;53.104;8.228;2023-01-16T03:48:11;3.70;99.90
3344;DHT22;1685;53.104;8.228;2023-01-16T03:50:42;3.80;99.90
3344;DHT22;1685;53.104;8.228;2023-01-16T03:53:13;3.80;99.90
3344;DHT22;1685;53.104;8.228;2023-01-16T03:55:44;3.80;99.90
3344;DHT22;1685;53.104;8.228;2023-01-16T03:58:18;3.80;99.90
3344;DHT22;1685;53.104;8.228;2023-01-16T04:00:49;3.80;99.90
3344;DHT22;1685;53.104;8.228;2023-01-16T04:03:24;3.80;99.90
3344;DHT22;1685;53.104;8.228;2023-01-16T04:05:59;3.90;99.90
3344;DHT22;1685;53.104;8.228;2023-01-16T04:08:31;3.90;99.90
3344;DHT22;1685;53.104;8.228;2023-01-16T04:13:30;4.00;99.90
3344;DHT22;1685;53.104;8.228;2023-01-16T04:16:00;4.00;99.90
3344;DHT22;1685;53.104;8.228;2023-01-16T04:18:30;4.00;99.90
3344;DHT22;1685;53.104;8.228;2023-01-16T04:20:59;4.10;99.90
3344;DHT22;1685;53.104;8.228;2023-01-16T04:38:09;4.20;99.90
3344;DHT22;1685;53.104;8.228;2023-01-16T04:55:21;4.30;99.90
3344;DHT22;1685;53.104;8.228;2023-01-16T05:12:32;4.40;99.90
3344;DHT22;1685;53.104;8.228;2023-01-16T05:29:42;4.30;99.90
3344;DHT22;1685;53.104;8.228;2023-01-16T05:46:52;4.30;99.90
3344;DHT22;1685;53.104;8.228;2023-01-16T05:59:08;4.30;99.90
3344;DHT22;1685;53.104;8.228;2023-01-16T06:04:04;4.30;99.90
3344;DHT22;1685;53.104;8.228;2023-01-16T06:21:16;4.20;99.90
3344;DHT22;1685;53.104;8.228;2023-01-16T06:31:05;4.10;99.90
3344;DHT22;1685;53.104;8.228;2023-01-16T06:38:27;4.20;99.90
3344;DHT22;1685;53.104;8.228;2023-01-16T06:43:22;3.90;99.90
3344;DHT22;1685;53.104;8.228;2023-01-16T06:55:40;3.90;99.90
3344;DHT22;1685;53.104;8.228;2023-01-16T07:05:30;3.90;99.90
3344;DHT22;1685;53.104;8.228;2023-01-16T07:12:53;3.90;99.90
3344;DHT22;1685;53.104;8.228;2023-01-16T07:15:20;3.90;99.90
3344;DHT22;1685;53.104;8.228;2023-01-16T07:20:52;3.80;99.90
3344;DHT22;1685;53.104;8.228;2023-01-16T07:23:39;3.70;99.90
3344;DHT22;1685;53.104;8.228;2023-01-16T07:26:07;3.70;99.90
3344;DHT22;1685;53.104;8.228;2023-01-16T07:28:35;3.70;99.90
3344;DHT22;1685;53.104;8.228;2023-01-16T07:31:03;3.70;99.90
3344;DHT22;1685;53.104;8.228;2023-01-16T07:45:47;3.50;99.90
3344;DHT22;1685;53.104;8.228;2023-01-16T07:50:49;3.30;99.90
3344;DHT22;1685;53.104;8.228;2023-01-16T08:22:49;3.20;99.90
3344;DHT22;1685;53.104;8.228;2023-01-16T08:25:17;3.20;99.90
3344;DHT22;1685;53.104;8.228;2023-01-16T08:30:12;3.20;99.90
3344;DHT22;1685;53.104;8.228;2023-01-16T08:35:08;3.20;99.90
3344;DHT22;1685;53.104;8.228;2023-01-16T08:37:36;3.30;99.90
3344;DHT22;1685;53.104;8.228;2023-01-16T08:40:04;3.30;99.90
3344;DHT22;1685;53.104;8.228;2023-01-16T08:45:15;3.30;99.90
3344;DHT22;1685;53.104;8.228;2023-01-16T08:48:09;3.40;99.90
3344;DHT22;1685;53.104;8.228;2023-01-16T08:50:54;3.50;99.90
3344;DHT22;1685;53.104;8.228;2023-01-16T08:53:41;3.50;99.90
3344;DHT22;1685;53.104;8.228;2023-01-16T09:10:52;3.70;99.90
3344;DHT22;1685;53.104;8.228;2023-01-16T09:16:15;4.00;99.90
3344;DHT22;1685;53.104;8.228;2023-01-16T09:26:05;6.90;99.90
3344;DHT22;1685;53.104;8.228;2023-01-16T09:40:51;4.20;99.90
3344;DHT22;1685;53.104;8.228;2023-01-16T09:43:32;4.20;99.90
3344;DHT22;1685;53.104;8.228;2023-01-16T09:46:04;4.30;99.90
3344;DHT22;1685;53.104;8.228;2023-01-16T09:48:33;4.30;99.90
3344;DHT22;1685;53.104;8.228;2023-01-16T09:51:04;4.30;99.90
3344;DHT22;1685;53.104;8.228;2023-01-16T09:53:40;4.30;99.90
3344;DHT22;1685;53.104;8.228;2023-01-16T09:56:28;4.40;99.90
3344;DHT22;1685;53.104;8.228;2023-01-16T09:59:22;4.50;99.90
3344;DHT22;1685;53.104;8.228;2023-01-16T10:01:55;4.50;99.90
3344;DHT22;1685;53.104;8.228;2023-01-16T10:04:24;4.50;99.90
3344;DHT22;1685;53.104;8.228;2023-01-16T10:07:01;4.50;99.90
3344;DHT22;1685;53.104;8.228;2023-01-16T10:09:38;4.50;99.90
3344;DHT22;1685;53.104;8.228;2023-01-16T10:12:09;4.50;99.90
3344;DHT22;1685;53.104;8.228;2023-01-16T10:14:48;4.60;99.90
3344;DHT22;1685;53.104;8.228;2023-01-16T10:17:25;4.60;99.90
3344;DHT22;1685;53.104;8.228;2023-01-16T10:20:14;4.60;99.90
3344;DHT22;1685;53.104;8.228;2023-01-16T10:22:51;4.60;99.90
3344;DHT22;1685;53.104;8.228;2023-01-16T10:25:22;4.70;99.90
3344;DHT22;1685;53.104;8.228;2023-01-16T10:27:59;4.70;99.90
3344;DHT22;1685;53.104;8.228;2023-01-16T10:30:35;4.70;99.90
3344;DHT22;1685;53.104;8.228;2023-01-16T10:33:06;4.80;99.90
3344;DHT22;1685;53.104;8.228;2023-01-16T10:35:38;4.80;99.90
3344;DHT22;1685;53.104;8.228;2023-01-16T10:38:19;4.90;99.90
3344;DHT22;1685;53.104;8.228;2023-01-16T10:40:47;4.90;99.90
3344;DHT22;1685;53.104;8.228;2023-01-16T10:43:19;4.90;99.90
3344;DHT22;1685;53.104;8.228;2023-01-16T10:46:13;4.90;99.90
3344;DHT22;1685;53.104;8.228;2023-01-16T11:01:33;4.90;99.90
3344;DHT22;1685;53.104;8.228;2023-01-16T11:04:00;4.90;99.90
3344;DHT22;1685;53.104;8.228;2023-01-16T11:06:28;4.80;99.90
3344;DHT22;1685;53.104;8.228;2023-01-16T11:09:00;4.80;99.90
3344;DHT22;1685;53.104;8.228;2023-01-16T11:11:28;4.70;99.90
3344;DHT22;1685;53.104;8.228;2023-01-16T11:14:18;4.70;99.90
3344;DHT22;1685;53.104;8.228;2023-01-16T11:17:26;4.70;99.90
3344;DHT22;1685;53.104;8.228;2023-01-16T11:20:14;4.80;99.90
3344;DHT22;1685;53.104;8.228;2023-01-16T11:22:45;4.60;99.90
3344;DHT22;1685;53.104;8.228;2023-01-16T11:25:16;4.60;99.90
3344;DHT22;1685;53.104;8.228;2023-01-16T11:30:17;4.60;99.90
3344;DHT22;1685;53.104;8.228;2023-01-16T11:32:47;5.50;99.90
3344;DHT22;1685;53.104;8.228;2023-01-16T11:35:16;4.60;99.90
3344;DHT22;1685;53.104;8.228;2023-01-16T11:37:48;4.60;99.90
3344;DHT22;1685;53.104;8.228;2023-01-16T11:40:18;4.60;99.90
3344;DHT22;1685;53.104;8.228;2023-01-16T11:42:53;4.50;99.90
3344;DHT22;1685;53.104;8.228;2023-01-16T11:45:44;4.60;99.90
3344;DHT22;1685;53.104;8.228;2023-01-16T11:48:41;4.60;99.90
3344;DHT22;1685;53.104;8.228;2023-01-16T11:51:13;4.60;99.90
3344;DHT22;1685;53.104;8.228;2023-01-16T11:56:15;4.60;99.90
3344;DHT22;1685;53.104;8.228;2023-01-16T11:58:52;4.50;99.90
3344;DHT22;1685;53.104;8.228;2023-01-16T12:01:38;4.60;99.90
3344;DHT22;1685;53.104;8.228;2023-01-16T12:04:23;4.50;99.90
3344;DHT22;1685;53.104;8.228;2023-01-16T12:06:57;4.60;99.90
3344;DHT22;1685;53.104;8.228;2023-01-16T12:09:50;4.50;99.90
3344;DHT22;1685;53.104;8.228;2023-01-16T12:12:31;5.00;99.90
3344;DHT22;1685;53.104;8.228;2023-01-16T12:15:20;4.80;99.90
3344;DHT22;1685;53.104;8.228;2023-01-16T12:18:09;4.40;99.90
3344;DHT22;1685;53.104;8.228;2023-01-16T12:20:50;4.50;99.90
3344;DHT22;1685;53.104;8.228;2023-01-16T12:23:39;4.50;99.90
3344;DHT22;1685;53.104;8.228;2023-01-16T12:26:17;4.50;99.90
3344;DHT22;1685;53.104;8.228;2023-01-16T12:29:00;4.50;99.90
3344;DHT22;1685;53.104;8.228;2023-01-16T12:31:55;4.50;99.90
3344;DHT22;1685;53.104;8.228;2023-01-16T12:34:42;4.60;99.90
3344;DHT22;1685;53.104;8.228;2023-01-16T12:37:23;4.50;99.90
3344;DHT22;1685;53.104;8.228;2023-01-16T12:39:58;4.50;99.90
3344;DHT22;1685;53.104;8.228;2023-01-16T12:42:34;4.50;99.90
3344;DHT22;1685;53.104;8.228;2023-01-16T12:45:32;4.50;99.90
3344;DHT22;1685;53.104;8.228;2023-01-16T12:48:12;4.50;99.90
3344;DHT22;1685;53.104;8.228;2023-01-16T12:50:57;4.50;99.90
3344;DHT22;1685;53.104;8.228;2023-01-16T12:53:41;4.60;99.90
3344;DHT22;1685;53.104;8.228;2023-01-16T12:56:31;4.50;99.90
3344;DHT22;1685;53.104;8.228;2023-01-16T12:59:06;4.70;99.90
3344;DHT22;1685;53.104;8.228;2023-01-16T13:01:38;4.60;99.90
3344;DHT22;1685;53.104;8.228;2023-01-16T13:04:12;4.60;99.90
3344;DHT22;1685;53.104;8.228;2023-01-16T13:06:44;4.70;99.90
3344;DHT22;1685;53.104;8.228;2023-01-16T13:09:18;4.70;99.90
3344;DHT22;1685;53.104;8.228;2023-01-16T13:11:57;4.70;99.90
3344;DHT22;1685;53.104;8.228;2023-01-16T13:14:45;4.70;99.90
3344;DHT22;1685;53.104;8.228;2023-01-16T13:17:18;4.80;99.90
3344;DHT22;1685;53.104;8.228;2023-01-16T13:19:46;4.80;99.90
3344;DHT22;1685;53.104;8.228;2023-01-16T13:22:20;4.80;99.90
3344;DHT22;1685;53.104;8.228;2023-01-16T13:24:55;4.80;99.90
3344;DHT22;1685;53.104;8.228;2023-01-16T13:27:31;4.80;99.90
3344;DHT22;1685;53.104;8.228;2023-01-16T13:30:03;4.80;99.90
3344;DHT22;1685;53.104;8.228;2023-01-16T13:32:32;4.90;99.90
3344;DHT22;1685;53.104;8.228;2023-01-16T13:35:02;4.90;99.90
3344;DHT22;1685;53.104;8.228;2023-01-16T13:37:42;4.90;99.90
3344;DHT22;1685;53.104;8.228;2023-01-16T13:40:23;4.90;99.90
3344;DHT22;1685;53.104;8.228;2023-01-16T13:42:55;4.90;99.90
3344;DHT22;1685;53.104;8.228;2023-01-16T13:48:17;4.80;99.90
3344;DHT22;1685;53.104;8.228;2023-01-16T13:50:50;4.90;99.90
3344;DHT22;1685;53.104;8.228;2023-01-16T13:55:49;4.80;99.90
3344;DHT22;1685;53.104;8.228;2023-01-16T13:58:19;4.80;99.90
3344;DHT22;1685;53.104;8.228;2023-01-16T14:03:22;4.60;99.90
3344;DHT22;1685;53.104;8.228;2023-01-16T14:05:52;4.60;99.90
3344;DHT22;1685;53.104;8.228;2023-01-16T14:08:45;4.60;99.90
3344;DHT22;1685;53.104;8.228;2023-01-16T14:11:56;4.60;99.90
3344;DHT22;1685;53.104;8.228;2023-01-16T14:14:47;4.60;99.90
3344;DHT22;1685;53.104;8.228;2023-01-16T14:18:00;4.60;99.90
3344;DHT22;1685;53.104;8.228;2023-01-16T14:20:40;4.40;99.90
3344;DHT22;1685;53.104;8.228;2023-01-16T14:23:17;4.50;99.90
3344;DHT22;1685;53.104;8.228;2023-01-16T14:26:03;4.50;99.90
3344;DHT22;1685;53.104;8.228;2023-01-16T14:28:32;4.50;99.90
3344;DHT22;1685;53.104;8.228;2023-01-16T14:35:56;4.50;99.90
3344;DHT22;1685;53.104;8.228;2023-01-16T14:38:26;4.50;99.90
3344;DHT22;1685;53.104;8.228;2023-01-16T14:40:55;4.60;99.90
3344;DHT22;1685;53.104;8.228;2023-01-16T14:44:07;4.60;99.90
3344;DHT22;1685;53.104;8.228;2023-01-16T14:47:07;4.60;99.90
3344;DHT22;1685;53.104;8.228;2023-01-16T14:50:04;4.60;99.90
3344;DHT22;1685;53.104;8.228;2023-01-16T14:52:56;4.50;99.90
3344;DHT22;1685;53.104;8.228;2023-01-16T14:55:50;4.60;99.90
3344;DHT22;1685;53.104;8.228;2023-01-16T14:58:26;4.30;99.90
3344;DHT22;1685;53.104;8.228;2023-01-16T15:00:56;4.60;99.90
3344;DHT22;1685;53.104;8.228;2023-01-16T15:06:27;4.60;99.90
3344;DHT22;1685;53.104;8.228;2023-01-16T15:08:58;4.60;99.90
3344;DHT22;1685;53.104;8.228;2023-01-16T15:11:27;4.60;99.90
3344;DHT22;1685;53.104;8.228;2023-01-16T15:14:12;4.60;99.90
3344;DHT22;1685;53.104;8.228;2023-01-16T15:17:03;4.50;99.90
3344;DHT22;1685;53.104;8.228;2023-01-16T15:19:58;4.60;99.90
3344;DHT22;1685;53.104;8.228;2023-01-16T15:22:43;4.60;99.90
3344;DHT22;1685;53.104;8.228;2023-01-16T15:25:20;4.60;99.90
3344;DHT22;1685;53.104;8.228;2023-01-16T15:27:54;4.60;99.90
3344;DHT22;1685;53.104;8.228;2023-01-16T15:30:25;4.60;99.90
3344;DHT22;1685;53.104;8.228;2023-01-16T15:32:54;4.60;99.90
3344;DHT22;1685;53.104;8.228;2023-01-16T15:35:22;4.60;99.90
3344;DHT22;1685;53.104;8.228;2023-01-16T15:37:49;4.60;99.90
3344;DHT22;1685;53.104;8.228;2023-01-16T15:40:23;4.60;99.90
3344;DHT22;1685;53.104;8.228;2023-01-16T15:45:35;4.50;99.90
3344;DHT22;1685;53.104;8.228;2023-01-16T15:48:37;4.10;99.90
3344;DHT22;1685;53.104;8.228;2023-01-16T15:51:10;4.60;99.90
3344;DHT22;1685;53.104;8.228;2023-01-16T15:53:42;4.80;99.90
3344;DHT22;1685;53.104;8.228;2023-01-16T15:56:18;4.50;99.90
3344;DHT22;1685;53.104;8.228;2023-01-16T16:01:14;4.60;99.90
3344;DHT22;1685;53.104;8.228;2023-01-16T16:03:44;4.50;99.90
3344;DHT22;1685;53.104;8.228;2023-01-16T16:06:13;4.50;99.90
3344;DHT22;1685;53.104;8.228;2023-01-16T16:08:45;4.50;99.90
3344;DHT22;1685;53.104;8.228;2023-01-16T16:11:17;4.50;99.90
3344;DHT22;1685;53.104;8.228;2023-01-16T16:14:02;4.50;99.90
3344;DHT22;1685;53.104;8.228;2023-01-16T16:16:59;4.40;99.90
3344;DHT22;1685;53.104;8.228;2023-01-16T16:19:45;4.40;99.90
3344;DHT22;1685;53.104;8.228;2023-01-16T16:22:17;4.40;99.90
3344;DHT22;1685;53.104;8.228;2023-01-16T16:25:08;4.50;99.90
3344;DHT22;1685;53.104;8.228;2023-01-16T16:30:03;4.60;99.90
3344;DHT22;1685;53.104;8.228;2023-01-16T16:32:35;4.50;99.90
3344;DHT22;1685;53.104;8.228;2023-01-16T16:35:04;4.50;99.90
3344;DHT22;1685;53.104;8.228;2023-01-16T16:40:05;4.40;99.90
3344;DHT22;1685;53.104;8.228;2023-01-16T16:42:49;4.50;99.90
3344;DHT22;1685;53.104;8.228;2023-01-16T16:45:22;4.60;99.90
3344;DHT22;1685;53.104;8.228;2023-01-16T16:48:18;4.50;99.90
3344;DHT22;1685;53.104;8.228;2023-01-16T16:50:47;4.60;99.90
3344;DHT22;1685;53.104;8.228;2023-01-16T16:53:15;4.50;99.90
3344;DHT22;1685;53.104;8.228;2023-01-16T16:55:46;4.50;99.90
3344;DHT22;1685;53.104;8.228;2023-01-16T16:58:14;4.50;99.90
3344;DHT22;1685;53.104;8.228;2023-01-16T17:00:42;4.60;99.90
3344;DHT22;1685;53.104;8.228;2023-01-16T17:03:12;4.50;99.90
3344;DHT22;1685;53.104;8.228;2023-01-16T17:08:12;4.50;99.90
3344;DHT22;1685;53.104;8.228;2023-01-16T17:13:08;4.50;99.90
3344;DHT22;1685;53.104;8.228;2023-01-16T17:25:27;4.40;99.90
3344;DHT22;1685;53.104;8.228;2023-01-16T17:27:55;4.30;99.90
3344;DHT22;1685;53.104;8.228;2023-01-16T17:30:23;4.30;99.90
3344;DHT22;1685;53.104;8.228;2023-01-16T17:32:54;4.30;99.90
3344;DHT22;1685;53.104;8.228;2023-01-16T17:42:44;4.20;99.90
3344;DHT22;1685;53.104;8.228;2023-01-16T17:45:31;4.10;99.90
3344;DHT22;1685;53.104;8.228;2023-01-16T17:48:16;4.10;99.90
3344;DHT22;1685;53.104;8.228;2023-01-16T17:50:43;4.10;99.90
3344;DHT22;1685;53.104;8.228;2023-01-16T17:53:11;4.10;99.90
3344;DHT22;1685;53.104;8.228;2023-01-16T17:55:38;4.10;99.90
3344;DHT22;1685;53.104;8.228;2023-01-16T17:58:18;4.20;99.90
3344;DHT22;1685;53.104;8.228;2023-01-16T18:00:50;4.30;99.90
3344;DHT22;1685;53.104;8.228;2023-01-16T18:15:52;4.20;99.90
3344;DHT22;1685;53.104;8.228;2023-01-16T18:18:41;4.20;99.90
3344;DHT22;1685;53.104;8.228;2023-01-16T18:21:10;4.10;99.90
3344;DHT22;1685;53.104;8.228;2023-01-16T18:23:55;4.10;99.90
3344;DHT22;1685;53.104;8.228;2023-01-16T18:26:22;4.10;99.90
3344;DHT22;1685;53.104;8.228;2023-01-16T18:31:18;3.90;99.90
3344;DHT22;1685;53.104;8.228;2023-01-16T18:41:24;4.20;99.90
3344;DHT22;1685;53.104;8.228;2023-01-16T18:44:10;4.20;99.90
3344;DHT22;1685;53.104;8.228;2023-01-16T18:46:56;4.20;99.90
3344;DHT22;1685;53.104;8.228;2023-01-16T18:49:40;4.10;99.90
3344;DHT22;1685;53.104;8.228;2023-01-16T18:52:32;4.10;99.90
3344;DHT22;1685;53.104;8.228;2023-01-16T18:55:17;4.30;99.90
3344;DHT22;1685;53.104;8.228;2023-01-16T18:58:04;4.00;99.90
3344;DHT22;1685;53.104;8.228;2023-01-16T19:00:48;4.10;99.90
3344;DHT22;1685;53.104;8.228;2023-01-16T19:03:34;4.20;99.90
3344;DHT22;1685;53.104;8.228;2023-01-16T19:10:56;4.10;99.90
3344;DHT22;1685;53.104;8.228;2023-01-16T19:16:04;4.10;99.90
3344;DHT22;1685;53.104;8.228;2023-01-16T19:18:50;4.20;99.90
3344;DHT22;1685;53.104;8.228;2023-01-16T19:31:06;4.00;99.90
3344;DHT22;1685;53.104;8.228;2023-01-16T19:36:01;4.00;99.90
3344;DHT22;1685;53.104;8.228;2023-01-16T19:41:00;4.00;99.90
3344;DHT22;1685;53.104;8.228;2023-01-16T19:46:11;4.00;99.90
3344;DHT22;1685;53.104;8.228;2023-01-16T19:48:56;4.10;99.90
3344;DHT22;1685;53.104;8.228;2023-01-16T19:51:24;3.90;99.90
3344;DHT22;1685;53.104;8.228;2023-01-16T19:53:51;4.10;99.90
3344;DHT22;1685;53.104;8.228;2023-01-16T20:03:43;3.90;99.90
3344;DHT22;1685;53.104;8.228;2023-01-16T20:08:40;4.00;99.90
3344;DHT22;1685;53.104;8.228;2023-01-16T20:16:02;4.00;99.90
3344;DHT22;1685;53.104;8.228;2023-01-16T20:18:29;3.90;99.90
3344;DHT22;1685;53.104;8.228;2023-01-16T20:23:29;3.90;99.90
3344;DHT22;1685;53.104;8.228;2023-01-16T20:25:59;4.00;99.90
3344;DHT22;1685;53.104;8.228;2023-01-16T20:33:24;4.00;99.90
3344;DHT22;1685;53.104;8.228;2023-01-16T20:35:59;3.90;99.90
3344;DHT22;1685;53.104;8.228;2023-01-16T20:38:25;3.90;99.90
3344;DHT22;1685;53.104;8.228;2023-01-16T20:43:20;3.80;99.90
3344;DHT22;1685;53.104;8.228;2023-01-16T20:46:05;3.40;99.90
3344;DHT22;1685;53.104;8.228;2023-01-16T20:51:02;3.90;99.90
3344;DHT22;1685;53.104;8.228;2023-01-16T20:58:25;3.70;99.90
3344;DHT22;1685;53.104;8.228;2023-01-16T21:00:57;3.70;99.90
3344;DHT22;1685;53.104;8.228;2023-01-16T21:08:18;3.80;99.90
3344;DHT22;1685;53.104;8.228;2023-01-16T21:15:59;3.80;99.90
3344;DHT22;1685;53.104;8.228;2023-01-16T21:18:39;3.70;99.90
3344;DHT22;1685;53.104;8.228;2023-01-16T21:24:09;3.50;99.90
3344;DHT22;1685;53.104;8.228;2023-01-16T21:29:05;3.60;99.90
3344;DHT22;1685;53.104;8.228;2023-01-16T21:31:33;3.70;99.90
3344;DHT22;1685;53.104;8.228;2023-01-16T21:46:34;3.70;99.90
3344;DHT22;1685;53.104;8.228;2023-01-16T21:51:30;3.70;99.90
3344;DHT22;1685;53.104;8.228;2023-01-16T22:03:50;3.80;99.90
3344;DHT22;1685;53.104;8.228;2023-01-16T22:11:12;3.70;99.90
3344;DHT22;1685;53.104;8.228;2023-01-16T22:13:57;3.70;99.90
3344;DHT22;1685;53.104;8.228;2023-01-16T22:16:41;3.70;99.90
3344;DHT22;1685;53.104;8.228;2023-01-16T22:19:29;3.60;99.90
3344;DHT22;1685;53.104;8.228;2023-01-16T22:34:16;3.80;99.90
3344;DHT22;1685;53.104;8.228;2023-01-16T22:36:47;3.80;99.90
3344;DHT22;1685;53.104;8.228;2023-01-16T22:39:14;3.90;99.90
3344;DHT22;1685;53.104;8.228;2023-01-16T22:44:09;3.90;99.90
3344;DHT22;1685;53.104;8.228;2023-01-16T22:46:53;3.90;99.90
3344;DHT22;1685;53.104;8.228;2023-01-16T22:51:48;3.80;99.90
3344;DHT22;1685;53.104;8.228;2023-01-16T23:08:59;4.00;99.90
3344;DHT22;1685;53.104;8.228;2023-01-16T23:11:27;3.70;99.90
3344;DHT22;1685;53.104;8.228;2023-01-16T23:13:57;3.70;99.90
3344;DHT22;1685;53.104;8.228;2023-01-16T23:16:26;3.90;99.90
3344;DHT22;1685;53.104;8.228;2023-01-16T23:26:16;3.90;99.90
3344;DHT22;1685;53.104;8.228;2023-01-16T23:28:49;3.90;99.90
3344;DHT22;1685;53.104;8.228;2023-01-16T23:36:12;3.90;99.90
3344;DHT22;1685;53.104;8.228;2023-01-16T23:43:36;3.90;99.90
3344;DHT22;1685;53.104;8.228;2023-01-16T23:46:28;3.90;99.90
3344;DHT22;1685;53.104;8.228;2023-01-16T23:48:55;4.00;99.90
3344;DHT22;1685;53.104;8.228;2023-01-16T23:58:46;3.90;99.90
